createdAt,value
2019-01-22T00:00:41.905Z,1.35
2019-01-22T00:03:11.485Z,1.45
2019-01-22T00:05:41.070Z,1.23
2019-01-22T00:08:10.542Z,1.21
2019-01-22T00:10:40.045Z,1.12
2019-01-22T00:13:09.914Z,1.11
2019-01-22T00:15:39.465Z,1.27
2019-01-22T00:18:08.981Z,1.09
2019-01-22T00:20:38.544Z,1.16
2019-01-22T00:23:08.005Z,1.18
2019-01-22T00:25:37.911Z,1.12
2019-01-22T00:28:07.433Z,1.09
2019-01-22T00:30:36.924Z,1.16
2019-01-22T00:33:06.350Z,1.08
2019-01-22T00:35:35.823Z,1.14
2019-01-22T00:38:05.345Z,1.05
2019-01-22T00:40:35.002Z,1.30
2019-01-22T00:43:04.477Z,1.38
2019-01-22T00:45:33.957Z,1.42
2019-01-22T00:48:03.454Z,1.16
2019-01-22T00:50:32.855Z,1.06
2019-01-22T00:53:02.325Z,1.02
2019-01-22T00:55:32.018Z,1.03
2019-01-22T00:58:01.488Z,1.00
2019-01-22T01:00:33.062Z,1.00
2019-01-22T01:03:02.579Z,1.05
2019-01-22T01:05:32.441Z,1.05
2019-01-22T01:08:02.015Z,1.01
2019-01-22T01:10:31.511Z,0.98
2019-01-22T01:13:01.002Z,0.99
2019-01-22T01:15:30.482Z,1.03
2019-01-22T01:18:00.360Z,1.02
2019-01-22T01:20:29.923Z,1.06
2019-01-22T01:22:59.433Z,1.06
2019-01-22T01:25:28.923Z,1.21
2019-01-22T01:27:58.399Z,1.10
2019-01-22T01:30:27.860Z,1.03
2019-01-22T01:32:57.463Z,1.08
2019-01-22T01:35:26.928Z,1.02
2019-01-22T01:37:56.401Z,1.12
2019-01-22T01:40:25.920Z,1.15
2019-01-22T01:42:55.425Z,1.21
2019-01-22T01:45:25.168Z,1.09
2019-01-22T01:47:54.691Z,1.07
2019-01-22T01:50:24.165Z,1.02
2019-01-22T01:52:53.640Z,0.98
2019-01-22T01:55:23.148Z,0.98
2019-01-22T01:57:52.627Z,0.98
2019-01-22T02:00:22.398Z,1.00
2019-01-22T02:02:51.889Z,0.98
2019-01-22T02:05:21.363Z,0.95
2019-01-22T02:07:50.884Z,0.93
2019-01-22T02:10:22.594Z,0.93
2019-01-22T02:13:02.422Z,0.95
2019-01-22T02:15:45.285Z,0.93
2019-01-22T02:18:31.317Z,0.95
2019-01-22T02:21:20.610Z,1.09
2019-01-22T02:24:09.080Z,1.04
2019-01-22T02:26:58.082Z,0.99
2019-01-22T02:29:40.764Z,1.07
2019-01-22T02:32:23.844Z,1.07
2019-01-22T02:35:12.548Z,0.94
2019-01-22T02:38:04.657Z,0.93
2019-01-22T02:40:38.844Z,0.92
2019-01-22T02:43:37.317Z,0.99
2019-01-22T02:46:29.374Z,0.93
2019-01-22T02:49:29.173Z,1.03
2019-01-22T02:52:36.709Z,0.93
2019-01-22T02:55:31.834Z,0.90
2019-01-22T02:58:28.699Z,0.92
2019-01-22T03:01:14.819Z,0.81
2019-01-22T03:04:13.221Z,0.90
2019-01-22T03:06:56.321Z,0.86
2019-01-22T03:09:48.614Z,0.75
2019-01-22T03:12:49.909Z,0.64
2019-01-22T03:15:52.714Z,0.85
2019-01-22T03:18:38.691Z,0.95
2019-01-22T03:21:24.980Z,0.96
2019-01-22T03:24:16.913Z,0.79
2019-01-22T03:27:02.964Z,0.69
2019-01-22T03:30:19.721Z,0.65
2019-01-22T03:33:20.645Z,0.62
2019-01-22T03:36:12.614Z,0.72
2019-01-22T03:38:58.738Z,0.85
2019-01-22T03:42:12.961Z,0.66
2019-01-22T03:45:13.894Z,0.68
2019-01-22T03:48:25.935Z,0.76
2019-01-22T03:51:17.916Z,0.67
2019-01-22T03:54:16.194Z,0.64
2019-01-22T03:57:02.530Z,0.59
2019-01-22T03:59:32.374Z,0.52
2019-01-22T04:02:01.853Z,0.71
2019-01-22T04:04:31.371Z,0.88
2019-01-22T04:07:00.844Z,0.79
2019-01-22T04:09:31.119Z,0.82
2019-01-22T04:12:01.096Z,0.74
2019-01-22T04:14:30.564Z,0.69
2019-01-22T04:17:00.023Z,0.72
2019-01-22T04:19:29.773Z,0.81
2019-01-22T04:21:59.258Z,0.72
2019-01-22T04:24:48.693Z,0.64
2019-01-22T04:27:25.488Z,0.68
2019-01-22T04:30:21.183Z,0.58
2019-01-22T04:33:26.778Z,0.57
2019-01-22T04:36:21.956Z,0.42
2019-01-22T04:39:18.312Z,0.27
2019-01-22T04:42:04.464Z,0.28
2019-01-22T04:44:47.215Z,0.36
2019-01-22T04:48:01.952Z,0.49
2019-01-22T04:50:42.088Z,0.38
2019-01-22T04:53:31.144Z,0.29
2019-01-22T04:56:26.274Z,0.32
2019-01-22T04:59:26.105Z,0.31
2019-01-22T05:02:24.414Z,0.14
2019-01-22T05:05:13.831Z,0.04
2019-01-22T05:08:06.024Z,0.08
2019-01-22T05:10:52.262Z,0.16
2019-01-22T05:13:35.066Z,0.31
2019-01-22T05:16:42.361Z,0.24
2019-01-22T05:19:16.537Z,0.19
2019-01-22T05:21:59.629Z,0.20
2019-01-22T05:24:48.540Z,0.23
2019-01-22T05:27:37.144Z,0.40
2019-01-22T05:30:32.746Z,0.23
2019-01-22T05:33:35.592Z,0.15
2019-01-22T05:36:21.833Z,0.20
2019-01-22T05:38:58.735Z,-0.02
2019-01-22T05:42:21.693Z,-0.04
2019-01-22T05:44:59.002Z,0.10
2019-01-22T05:47:44.860Z,-0.01
2019-01-22T05:50:31.015Z,-0.02
2019-01-22T05:53:24.764Z,0.00
2019-01-22T05:56:04.524Z,0.10
2019-01-22T05:59:08.867Z,-0.10
2019-01-22T06:01:48.557Z,0.00
2019-01-22T06:04:28.597Z,-0.02
2019-01-22T06:07:20.821Z,-0.01
2019-01-22T06:10:06.864Z,-0.18
2019-01-22T06:12:55.813Z,-0.18
2019-01-22T06:15:50.531Z,-0.31
2019-01-22T06:18:45.464Z,-0.22
2019-01-22T06:21:25.485Z,-0.10
2019-01-22T06:24:11.570Z,-0.25
2019-01-22T06:26:51.543Z,-0.13
2019-01-22T06:29:59.130Z,-0.10
2019-01-22T06:32:42.567Z,-0.23
2019-01-22T06:35:28.549Z,-0.11
2019-01-22T06:38:26.735Z,-0.02
2019-01-22T06:41:03.545Z,-0.23
2019-01-22T06:43:57.297Z,-0.28
2019-01-22T06:46:50.940Z,-0.27
2019-01-22T06:50:11.008Z,-0.30
2019-01-22T06:52:50.975Z,-0.38
2019-01-22T06:55:31.217Z,-0.25
2019-01-22T06:58:38.678Z,-0.17
2019-01-22T07:01:27.744Z,-0.38
2019-01-22T07:04:10.615Z,-0.34
2019-01-22T07:07:02.801Z,-0.34
2019-01-22T07:10:00.276Z,-0.31
2019-01-22T07:12:45.177Z,-0.24
2019-01-22T07:15:46.558Z,-0.11
2019-01-22T07:18:40.856Z,0.00
2019-01-22T07:21:43.546Z,-0.19
2019-01-22T07:24:23.324Z,-0.27
2019-01-22T07:27:08.946Z,-0.20
2019-01-22T07:30:01.239Z,-0.39
2019-01-22T07:32:35.456Z,-0.23
2019-01-22T07:35:39.715Z,-0.28
2019-01-22T07:38:25.143Z,-0.28
2019-01-22T07:40:59.303Z,-0.19
2019-01-22T07:43:42.297Z,-0.17
2019-01-22T07:46:34.609Z,-0.17
2019-01-22T07:49:29.841Z,-0.17
2019-01-22T07:52:30.043Z,-0.02
2019-01-22T07:55:15.606Z,-0.07
2019-01-22T07:58:18.815Z,-0.15
2019-01-22T08:01:07.788Z,-0.10
2019-01-22T08:04:38.078Z,-0.06
2019-01-22T08:07:19.448Z,0.11
2019-01-22T08:10:31.134Z,0.05
2019-01-22T08:13:35.373Z,0.14
2019-01-22T08:16:18.539Z,0.11
2019-01-22T08:19:27.067Z,0.11
2019-01-22T08:22:25.159Z,0.18
2019-01-22T08:25:23.343Z,0.20
2019-01-22T08:28:18.430Z,0.35
2019-01-22T08:31:11.561Z,0.35
2019-01-22T08:33:45.723Z,0.39
2019-01-22T08:36:40.999Z,0.42
2019-01-22T08:39:51.240Z,0.47
2019-01-22T08:42:31.189Z,0.41
2019-01-22T08:45:23.549Z,0.43
2019-01-22T08:48:19.602Z,0.36
2019-01-22T08:51:05.757Z,0.31
2019-01-22T08:54:02.414Z,0.34
2019-01-22T08:56:48.334Z,0.38
2019-01-22T08:59:37.435Z,0.43
2019-01-22T09:02:35.643Z,0.35
2019-01-22T09:05:18.278Z,0.35
2019-01-22T09:08:25.808Z,0.53
2019-01-22T09:11:17.859Z,0.68
2019-01-22T09:14:00.910Z,0.71
2019-01-22T09:17:04.000Z,0.77
2019-01-22T09:19:46.691Z,0.79
2019-01-22T09:22:40.343Z,0.70
2019-01-22T09:25:25.936Z,0.63
2019-01-22T09:28:15.157Z,0.67
2019-01-22T09:31:08.802Z,0.81
2019-01-22T09:33:54.968Z,0.69
2019-01-22T09:36:41.037Z,0.79
2019-01-22T09:39:12.032Z,0.83
2019-01-22T09:41:41.502Z,0.98
2019-01-22T09:44:21.320Z,1.06
2019-01-22T09:46:50.783Z,0.99
2019-01-22T09:49:20.190Z,0.98
2019-01-22T09:51:49.607Z,0.90
2019-01-22T09:54:19.083Z,0.98
2019-01-22T09:56:48.558Z,1.07
2019-01-22T09:59:18.165Z,1.06
2019-01-22T10:01:47.692Z,0.98
2019-01-22T10:04:17.171Z,1.07
2019-01-22T10:06:46.695Z,0.93
2019-01-22T10:09:16.220Z,1.02
2019-01-22T10:11:45.702Z,1.02
2019-01-22T10:14:15.193Z,1.05
2019-01-22T10:16:44.663Z,1.02
2019-01-22T10:19:14.139Z,1.35
2019-01-22T10:21:43.640Z,1.52
2019-01-22T10:24:13.199Z,1.48
2019-01-22T10:26:42.811Z,1.42
2019-01-22T10:29:12.416Z,1.62
2019-01-22T10:31:41.890Z,1.59
2019-01-22T10:34:11.364Z,1.73
2019-01-22T10:36:40.873Z,1.83
2019-01-22T10:39:10.348Z,1.77
2019-01-22T10:41:39.860Z,1.78
2019-01-22T10:44:12.413Z,1.79
2019-01-22T10:46:41.891Z,1.91
2019-01-22T10:49:11.357Z,2.06
2019-01-22T10:51:40.963Z,2.14
2019-01-22T10:54:10.438Z,2.09
2019-01-22T10:56:40.024Z,1.99
2019-01-22T10:59:09.525Z,1.94
2019-01-22T11:01:38.996Z,2.03
2019-01-22T11:04:08.471Z,2.04
2019-01-22T11:06:37.978Z,2.34
2019-01-22T11:09:08.166Z,2.21
2019-01-22T11:11:37.628Z,2.16
2019-01-22T11:14:07.114Z,2.11
2019-01-22T11:16:36.602Z,2.16
2019-01-22T11:19:06.064Z,2.15
2019-01-22T11:21:35.665Z,2.24
2019-01-22T11:24:05.145Z,2.15
2019-01-22T11:26:34.621Z,2.34
2019-01-22T11:29:04.138Z,2.38
2019-01-22T11:31:33.707Z,2.41
2019-01-22T11:34:03.179Z,2.13
2019-01-22T11:36:32.729Z,2.03
2019-01-22T11:39:02.208Z,2.13
2019-01-22T11:41:31.604Z,2.26
2019-01-22T11:44:01.101Z,2.28
2019-01-22T11:46:30.582Z,2.27
2019-01-22T11:49:00.038Z,2.06
2019-01-22T11:51:29.541Z,2.09
2019-01-22T11:53:59.017Z,2.17
2019-01-22T11:56:28.897Z,2.31
2019-01-22T11:58:58.396Z,2.50
2019-01-22T12:01:27.863Z,2.86
2019-01-22T12:03:57.342Z,3.16
2019-01-22T12:06:26.832Z,3.43
2019-01-22T12:08:56.310Z,3.66
2019-01-22T12:11:25.775Z,3.86
2019-01-22T12:13:55.290Z,3.90
2019-01-22T12:16:24.764Z,4.18
2019-01-22T12:18:54.241Z,4.32
2019-01-22T12:21:23.761Z,4.45
2019-01-22T12:23:53.234Z,4.57
2019-01-22T12:26:22.680Z,4.70
2019-01-22T12:28:52.183Z,4.63
2019-01-22T12:31:21.665Z,4.60
2019-01-22T12:33:51.125Z,4.68
2019-01-22T12:36:20.635Z,4.78
2019-01-22T12:38:50.191Z,5.04
2019-01-22T12:41:19.653Z,5.49
2019-01-22T12:43:49.156Z,6.36
2019-01-22T12:46:18.638Z,6.53
2019-01-22T12:48:48.111Z,7.95
2019-01-22T12:51:17.604Z,12.12
2019-01-22T12:53:47.089Z,14.00
2019-01-22T12:56:16.566Z,13.40
2019-01-22T12:58:46.071Z,12.21
2019-01-22T13:01:15.559Z,10.78
2019-01-22T13:03:45.040Z,9.60
2019-01-22T13:06:14.530Z,8.86
2019-01-22T13:08:43.991Z,8.43
2019-01-22T13:11:13.533Z,8.42
2019-01-22T13:13:43.066Z,9.17
2019-01-22T13:16:12.522Z,9.87
2019-01-22T13:18:41.923Z,9.59
2019-01-22T13:21:11.422Z,8.72
2019-01-22T13:23:40.893Z,10.68
2019-01-22T13:26:11.698Z,13.30
2019-01-22T13:28:41.441Z,15.68
2019-01-22T13:31:10.921Z,16.60
2019-01-22T13:33:40.406Z,16.61
2019-01-22T13:36:09.950Z,15.78
2019-01-22T13:38:39.448Z,14.34
2019-01-22T13:41:08.926Z,12.60
2019-01-22T13:43:38.433Z,12.31
2019-01-22T13:46:07.904Z,11.32
2019-01-22T13:48:37.371Z,9.91
2019-01-22T13:51:06.870Z,9.23
2019-01-22T13:53:36.362Z,8.57
2019-01-22T13:56:05.826Z,8.50
2019-01-22T13:58:35.440Z,8.51
2019-01-22T14:01:04.903Z,8.81
2019-01-22T14:03:34.561Z,8.79
2019-01-22T14:06:04.980Z,8.46
2019-01-22T14:08:34.447Z,8.24
2019-01-22T14:11:03.922Z,7.74
2019-01-22T14:13:33.355Z,8.00
2019-01-22T14:16:02.839Z,8.10
2019-01-22T14:18:32.357Z,7.87
2019-01-22T14:21:01.848Z,8.08
2019-01-22T14:23:31.314Z,8.32
2019-01-22T14:26:00.804Z,8.13
2019-01-22T14:28:30.269Z,7.59
2019-01-22T14:30:59.772Z,7.19
2019-01-22T14:33:29.293Z,6.30
2019-01-22T14:35:58.690Z,5.90
2019-01-22T14:38:28.088Z,5.35
2019-01-22T14:40:57.598Z,4.93
2019-01-22T14:43:27.073Z,4.57
2019-01-22T14:45:56.542Z,4.07
2019-01-22T14:48:25.961Z,3.61
2019-01-22T14:50:55.436Z,3.55
2019-01-22T14:53:24.911Z,3.42
2019-01-22T14:55:54.708Z,3.33
2019-01-22T14:58:24.167Z,2.70
2019-01-22T15:00:53.648Z,2.42
2019-01-22T15:03:23.268Z,2.31
2019-01-22T15:05:52.741Z,2.19
2019-01-22T15:08:22.237Z,1.96
2019-01-22T15:10:51.738Z,1.78
2019-01-22T15:13:21.214Z,1.71
2019-01-22T15:15:50.748Z,1.46
2019-01-22T15:18:20.341Z,1.13
2019-01-22T15:20:49.833Z,1.07
2019-01-22T15:23:19.310Z,1.02
2019-01-22T15:25:48.748Z,0.86
2019-01-22T15:28:18.214Z,0.80
2019-01-22T15:30:47.662Z,0.60
2019-01-22T15:33:18.318Z,0.53
2019-01-22T15:35:47.905Z,0.54
2019-01-22T15:38:17.381Z,0.51
2019-01-22T15:40:46.896Z,0.45
2019-01-22T15:43:16.446Z,0.46
2019-01-22T15:45:45.918Z,0.40
2019-01-22T15:48:15.419Z,0.28
2019-01-22T15:50:46.476Z,0.29
2019-01-22T15:53:15.949Z,0.23
2019-01-22T15:55:48.267Z,0.18
2019-01-22T15:58:16.841Z,0.22
2019-01-22T16:00:46.310Z,0.21
2019-01-22T16:03:15.808Z,0.17
2019-01-22T16:05:45.390Z,0.11
2019-01-22T16:08:14.863Z,0.07
2019-01-22T16:10:44.408Z,0.02
2019-01-22T16:13:13.898Z,0.02
2019-01-22T16:15:43.374Z,0.05
2019-01-22T16:18:12.916Z,0.08
2019-01-22T16:20:42.420Z,0.04
2019-01-22T16:23:11.945Z,0.10
2019-01-22T16:25:41.445Z,0.16
2019-01-22T16:28:11.011Z,0.10
2019-01-22T16:30:40.513Z,0.11
2019-01-22T16:33:10.008Z,0.11
2019-01-22T16:35:39.416Z,0.17
2019-01-22T16:38:08.906Z,0.16
2019-01-22T16:40:38.417Z,0.16
2019-01-22T16:43:07.893Z,0.12
2019-01-22T16:45:37.376Z,0.15
2019-01-22T16:48:06.937Z,0.23
2019-01-22T16:50:36.428Z,0.27
2019-01-22T16:53:07.612Z,0.24
2019-01-22T16:55:41.195Z,0.21
2019-01-22T16:58:10.671Z,0.18
2019-01-22T17:00:40.131Z,0.32
2019-01-22T17:03:10.146Z,0.36
2019-01-22T17:05:40.055Z,0.37
2019-01-22T17:08:09.440Z,0.37
2019-01-22T17:10:38.941Z,0.36
2019-01-22T17:13:08.419Z,0.42
2019-01-22T17:15:37.895Z,0.30
2019-01-22T17:18:07.421Z,0.36
2019-01-22T17:20:39.290Z,0.39
2019-01-22T17:23:09.429Z,0.51
2019-01-22T17:25:39.139Z,0.54
2019-01-22T17:28:08.612Z,0.53
2019-01-22T17:30:38.116Z,0.52
2019-01-22T17:33:12.113Z,0.51
2019-01-22T17:35:43.186Z,0.52
2019-01-22T17:38:12.665Z,0.52
2019-01-22T17:40:42.144Z,0.52
2019-01-22T17:43:11.649Z,0.72
2019-01-22T17:45:41.123Z,0.72
2019-01-22T17:48:10.605Z,0.70
2019-01-22T17:50:40.112Z,0.73
2019-01-22T17:53:09.593Z,0.74
2019-01-22T17:55:39.066Z,0.92
2019-01-22T17:58:08.566Z,1.14
2019-01-22T18:00:39.344Z,1.01
2019-01-22T18:03:08.853Z,0.90
2019-01-22T18:05:38.325Z,0.78
2019-01-22T18:08:09.791Z,0.75
2019-01-22T18:10:38.954Z,0.84
2019-01-22T18:13:08.428Z,0.95
2019-01-22T18:15:37.895Z,0.93
2019-01-22T18:18:07.503Z,0.79
2019-01-22T18:20:36.988Z,0.92
2019-01-22T18:23:06.402Z,1.15
2019-01-22T18:25:35.930Z,0.98
2019-01-22T18:28:05.398Z,1.01
2019-01-22T18:30:34.887Z,0.87
2019-01-22T18:33:04.446Z,0.78
2019-01-22T18:35:39.987Z,0.78
2019-01-22T18:38:09.518Z,0.91
2019-01-22T18:40:38.987Z,0.83
2019-01-22T18:43:08.459Z,0.91
2019-01-22T18:45:37.968Z,0.84
2019-01-22T18:48:07.508Z,0.87
2019-01-22T18:50:36.981Z,0.95
2019-01-22T18:53:06.491Z,0.93
2019-01-22T18:55:35.966Z,0.82
2019-01-22T18:58:05.497Z,0.77
2019-01-22T19:00:34.970Z,0.76
2019-01-22T19:03:04.441Z,0.63
2019-01-22T19:05:33.961Z,0.60
2019-01-22T19:08:03.433Z,0.60
2019-01-22T19:10:33.122Z,0.59
2019-01-22T19:13:02.764Z,0.55
2019-01-22T19:15:32.237Z,0.46
2019-01-22T19:18:01.704Z,0.46
2019-01-22T19:20:31.211Z,0.48
2019-01-22T19:23:00.689Z,0.50
2019-01-22T19:25:30.647Z,0.52
2019-01-22T19:28:00.305Z,0.62
2019-01-22T19:30:31.892Z,0.51
2019-01-22T19:33:01.351Z,0.61
2019-01-22T19:35:30.857Z,0.49
2019-01-22T19:38:00.359Z,0.58
2019-01-22T19:40:29.970Z,0.52
2019-01-22T19:42:59.466Z,0.44
2019-01-22T19:45:34.507Z,0.54
2019-01-22T19:48:04.031Z,0.50
2019-01-22T19:50:33.507Z,0.75
2019-01-22T19:53:02.996Z,0.62
2019-01-22T19:55:32.501Z,0.46
2019-01-22T19:58:01.996Z,0.42
2019-01-22T20:00:34.867Z,0.36
2019-01-22T20:03:04.867Z,0.34
2019-01-22T20:05:34.341Z,0.30
2019-01-22T20:08:03.842Z,0.28
2019-01-22T20:10:33.582Z,0.45
2019-01-22T20:13:03.196Z,0.30
2019-01-22T20:15:32.820Z,0.21
2019-01-22T20:18:02.695Z,0.20
2019-01-22T20:20:32.357Z,0.13
2019-01-22T20:23:01.862Z,0.05
2019-01-22T20:25:31.350Z,-0.01
2019-01-22T20:28:00.841Z,-0.03
2019-01-22T20:30:33.450Z,-0.05
2019-01-22T20:33:03.219Z,0.00
2019-01-22T20:35:32.710Z,-0.08
2019-01-22T20:38:02.231Z,-0.04
2019-01-22T20:40:31.956Z,-0.12
2019-01-22T20:43:01.815Z,-0.05
2019-01-22T20:45:31.653Z,-0.11
2019-01-22T20:48:01.365Z,-0.16
2019-01-22T20:50:52.234Z,-0.20
2019-01-22T20:53:22.246Z,-0.24
2019-01-22T20:55:51.807Z,-0.27
2019-01-22T20:58:21.316Z,-0.30
2019-01-22T21:00:50.799Z,-0.33
2019-01-22T21:03:20.414Z,-0.36
2019-01-22T21:05:50.217Z,-0.37
2019-01-22T21:08:19.768Z,-0.32
2019-01-22T21:10:49.195Z,-0.35
2019-01-22T21:13:18.700Z,-0.38
2019-01-22T21:15:48.272Z,-0.26
2019-01-22T21:18:17.801Z,-0.24
2019-01-22T21:20:47.572Z,-0.16
2019-01-22T21:23:17.065Z,-0.26
2019-01-22T21:25:46.549Z,-0.28
2019-01-22T21:28:16.076Z,-0.27
2019-01-22T21:30:45.564Z,-0.22
2019-01-22T21:33:15.044Z,-0.28
2019-01-22T21:35:44.748Z,-0.33
2019-01-22T21:38:14.234Z,-0.30
2019-01-22T21:40:43.728Z,-0.27
2019-01-22T21:43:13.253Z,-0.32
2019-01-22T21:45:42.753Z,-0.33
2019-01-22T21:48:12.227Z,-0.26
2019-01-22T21:50:41.749Z,-0.19
2019-01-22T21:53:11.261Z,-0.18
2019-01-22T21:55:40.666Z,-0.13
2019-01-22T21:58:10.165Z,-0.14
2019-01-22T22:00:39.638Z,0.04
2019-01-22T22:03:09.131Z,-0.10
2019-01-22T22:05:38.632Z,0.08
2019-01-22T22:08:08.315Z,0.11
2019-01-22T22:10:37.831Z,-0.07
2019-01-22T22:13:07.341Z,-0.15
2019-01-22T22:15:36.815Z,-0.20
2019-01-22T22:18:06.296Z,-0.01
2019-01-22T22:20:35.805Z,-0.14
2019-01-22T22:23:05.288Z,-0.22
2019-01-22T22:25:34.781Z,-0.21
2019-01-22T22:28:04.289Z,-0.30
2019-01-22T22:30:36.264Z,-0.36
2019-01-22T22:33:05.767Z,-0.45
2019-01-22T22:35:35.374Z,-0.46
2019-01-22T22:38:04.849Z,-0.51
2019-01-22T22:40:34.323Z,-0.54
2019-01-22T22:43:03.841Z,-0.52
2019-01-22T22:45:33.333Z,-0.47
2019-01-22T22:48:02.860Z,-0.46
2019-01-22T22:50:33.593Z,-0.40
2019-01-22T22:53:03.061Z,-0.38
2019-01-22T22:55:32.550Z,-0.38
2019-01-22T22:58:02.054Z,-0.39
2019-01-22T23:00:45.510Z,-0.37
2019-01-22T23:03:15.633Z,-0.41
2019-01-22T23:05:45.117Z,-0.41
2019-01-22T23:08:14.612Z,-0.38
2019-01-22T23:10:44.123Z,-0.39
2019-01-22T23:13:13.600Z,-0.38
2019-01-22T23:15:43.082Z,-0.41
2019-01-22T23:18:12.588Z,-0.39
2019-01-22T23:20:42.076Z,-0.39
2019-01-22T23:23:11.557Z,-0.35
2019-01-22T23:25:41.061Z,-0.35
2019-01-22T23:28:10.536Z,-0.33
2019-01-22T23:30:40.032Z,-0.37
2019-01-22T23:33:09.589Z,-0.38
2019-01-22T23:35:39.110Z,-0.37
2019-01-22T23:38:08.607Z,-0.36
2019-01-22T23:40:38.108Z,-0.38
2019-01-22T23:43:07.591Z,-0.40
2019-01-22T23:45:37.100Z,-0.42
2019-01-22T23:48:06.625Z,-0.43
2019-01-22T23:50:36.154Z,-0.41
2019-01-22T23:53:05.754Z,-0.40
2019-01-22T23:55:35.335Z,-0.38
2019-01-22T23:58:04.820Z,-0.36
